Sankoumaru 31 — JD2200 — position and weather

sailwx.info

Track history (hours):
 
Tides and Currents Weather Stations Pressure Air Temp Water Temp Dewpoint Dewpoint Depression Visibility Wind Speed Wind Dir Waves Ship Positions

Sankoumaru 31

Last reported at 2015-Mar-27 11:31 UTC. Time now 2015-Mar-27 11:56 UTC.
Position N 35°22' E 139°54'.

Length 75 m; draft 5 m.

Type: Cargo ship. MMSI: 431501842.

Date/timePositionNaut miles runAvg speedWind from/ knotsBaromVisibWave heightAir tempDewpointWater temp
2015-Mar-27 11:31N 35°22' E 139°54'0 0.0
2015-Mar-27 10:28N 35°22' E 139°54'0 0.0
2015-Mar-27 09:28N 35°22' E 139°54'0 0.0
2015-Mar-27 08:31N 35°22' E 139°54'0 0.0
2015-Mar-27 07:28N 35°22' E 139°54'0 0.0
2015-Mar-27 06:31N 35°22' E 139°54'0 0.0
2015-Mar-27 05:28N 35°22' E 139°54'0 0.0
2015-Mar-27 04:25N 35°22' E 139°54'0 0.0
2015-Mar-27 03:13N 35°22' E 139°54'0 0.0
2015-Mar-27 02:31N 35°22' E 139°54'0 0.0
2015-Mar-27 01:31N 35°22' E 139°54'0 0.0
2015-Mar-27 00:31N 35°22' E 139°54'0 0.0
2015-Mar-26 23:31N 35°22' E 139°54'0 0.2
2015-Mar-26 22:33N 35°22' E 139°54'1010.2
2015-Mar-26 21:33N 35°32' E 139°51'7 6.5
2015-Mar-26 20:33N 35°38' E 139°48'1 0.1
2015-Mar-26 03:33N 35°37' E 139°49'1111.1
2015-Mar-26 02:33N 35°35' E 140°02'2 2.4
2015-Mar-26 01:33N 35°37' E 140°05'0 0.0
2015-Mar-26 00:33N 35°37' E 140°05'0 0.0
2015-Mar-25 23:33N 35°37' E 140°05'0 0.0
2015-Mar-25 22:33N 35°37' E 140°05'0 0.0
2015-Mar-25 21:32N 35°37' E 140°05'0 0.0
2015-Mar-25 02:29N 35°37' E 140°05'4 4.4
2015-Mar-25 01:33N 35°37' E 139°60'4 4.3
2015-Mar-25 00:34N 35°41' E 139°57'0 0.0
2015-Mar-24 23:28N 35°41' E 139°57'0 0.0
2015-Mar-24 22:31N 35°41' E 139°57'3 3.5
2015-Mar-24 21:33N 35°38' E 139°59'0 0.2
2015-Mar-24 20:10N 35°37' E 139°59'0 0.0
2015-Mar-24 19:28N 35°37' E 139°59'0 0.0
2015-Mar-24 18:22N 35°37' E 139°59'0 0.0
2015-Mar-24 17:28N 35°37' E 139°59'7 8.1
2015-Mar-24 16:33N 35°31' E 139°53'1110.6
2015-Mar-24 15:33N 35°23' E 139°46'10 9.7
2015-Mar-24 14:33N 35°13' E 139°47'1111.2
2015-Mar-24 13:33N 35°02' E 139°45'23 7.4
2015-Mar-24 10:29N 35°01' E 140°12'  
Track history (hours):
 
Tides and Currents Weather Stations Pressure Air Temp Water Temp Dewpoint Dewpoint Depression Visibility Wind Speed Wind Dir Waves Ship Positions

Sankoumaru 31

Last reported at 2015-Mar-27 11:31 UTC. Time now 2015-Mar-27 11:56 UTC.
Position N 35°22' E 139°54'.

Length 75 m; draft 5 m.

Type: Cargo ship. MMSI: 431501842.

Date/timePositionNaut miles runAvg speedWind from/ knotsBaromVisibWave heightAir tempDewpointWater temp
2015-Mar-27 11:31N 35°22' E 139°54'0 0.0
2015-Mar-27 10:28N 35°22' E 139°54'0 0.0
2015-Mar-27 09:28N 35°22' E 139°54'0 0.0
2015-Mar-27 08:31N 35°22' E 139°54'0 0.0
2015-Mar-27 07:28N 35°22' E 139°54'0 0.0
2015-Mar-27 06:31N 35°22' E 139°54'0 0.0
2015-Mar-27 05:28N 35°22' E 139°54'0 0.0
2015-Mar-27 04:25N 35°22' E 139°54'0 0.0
2015-Mar-27 03:13N 35°22' E 139°54'0 0.0
2015-Mar-27 02:31N 35°22' E 139°54'0 0.0
2015-Mar-27 01:31N 35°22' E 139°54'0 0.0
2015-Mar-27 00:31N 35°22' E 139°54'0 0.0
2015-Mar-26 23:31N 35°22' E 139°54'0 0.2
2015-Mar-26 22:33N 35°22' E 139°54'1010.2
2015-Mar-26 21:33N 35°32' E 139°51'7 6.5
2015-Mar-26 20:33N 35°38' E 139°48'1 0.1
2015-Mar-26 03:33N 35°37' E 139°49'1111.1
2015-Mar-26 02:33N 35°35' E 140°02'2 2.4
2015-Mar-26 01:33N 35°37' E 140°05'0 0.0
2015-Mar-26 00:33N 35°37' E 140°05'0 0.0
2015-Mar-25 23:33N 35°37' E 140°05'0 0.0
2015-Mar-25 22:33N 35°37' E 140°05'0 0.0
2015-Mar-25 21:32N 35°37' E 140°05'0 0.0
2015-Mar-25 02:29N 35°37' E 140°05'4 4.4
2015-Mar-25 01:33N 35°37' E 139°60'4 4.3
2015-Mar-25 00:34N 35°41' E 139°57'0 0.0
2015-Mar-24 23:28N 35°41' E 139°57'0 0.0
2015-Mar-24 22:31N 35°41' E 139°57'3 3.5
2015-Mar-24 21:33N 35°38' E 139°59'0 0.2
2015-Mar-24 20:10N 35°37' E 139°59'0 0.0
2015-Mar-24 19:28N 35°37' E 139°59'0 0.0
2015-Mar-24 18:22N 35°37' E 139°59'0 0.0
2015-Mar-24 17:28N 35°37' E 139°59'7 8.1
2015-Mar-24 16:33N 35°31' E 139°53'1110.6
2015-Mar-24 15:33N 35°23' E 139°46'10 9.7
2015-Mar-24 14:33N 35°13' E 139°47'1111.2
2015-Mar-24 13:33N 35°02' E 139°45'23 7.4
2015-Mar-24 10:29N 35°01' E 140°12'  

Dump ship's entire track history